Time;durP1;ratioP1;P1;durP2;ratioP2;P2;SDS_P1;SDS_P2;PMS_P1;PMS_P2;Temp;Humidity;BMP_temperature;BMP_pressure;BME280_temperature;BME280_humidity;BME280_pressure;Samples;Min_cycle;Max_cycle;Signal;HPM_P1;HPM_P2
2021/12/16 00:01:59;;;;;;;30.33;10.10;;;;;;;5.84;100.00;103048.19;4992468;28;20121;-81
2021/12/16 00:29:41;;;;;;;28.50;9.82;;;;;;;5.90;100.00;103058.47;4961395;29;20046;-80
2021/12/16 00:34:49;;;;;;;29.17;8.90;;;;;;;5.22;100.00;102953.09;4929697;29;20031;-78
2021/12/16 00:37:15;;;;;;;29.77;8.93;;;;;;;4.78;100.00;102897.63;4977269;28;20077;-79
2021/12/16 00:39:41;;;;;;;26.48;9.02;;;;;;;5.51;100.00;103016.84;4949742;28;20085;-78
2021/12/16 00:42:26;;;;;;;26.50;8.73;;;;;;;5.80;100.00;103049.19;4976969;28;20034;-78
2021/12/16 00:49:53;;;;;;;22.70;8.00;;;;;;;4.91;100.00;102884.19;4980782;28;20118;-78
2021/12/16 00:55:32;;;;;;;28.25;8.52;;;;;;;5.61;100.00;103020.06;4983072;28;20123;-79
2021/12/16 00:57:58;;;;;;;22.48;8.68;;;;;;;5.56;100.00;103012.31;4983445;28;20034;-78
2021/12/16 01:00:30;;;;;;;27.15;8.35;;;;;;;5.98;100.00;103066.16;4984522;28;20113;-79
2021/12/16 01:03:13;;;;;;;28.27;8.38;;;;;;;5.60;100.00;103005.22;5005491;28;20029;-79
2021/12/16 01:47:23;;;;;;;26.20;9.55;;;;;;;5.67;100.00;103084.53;5043266;28;20034;-78
2021/12/16 01:53:01;;;;;;;25.75;10.40;;;;;;;6.11;100.00;103121.69;5028725;28;20472;-78
2021/12/16 01:55:32;;;;;;;23.08;8.57;;;;;;;5.79;100.00;103068.41;5012734;28;20093;-77
2021/12/16 01:58:10;;;;;;;22.63;8.45;;;;;;;5.45;100.00;103024.91;4993524;28;20068;-78
2021/12/16 02:00:58;;;;;;;25.10;9.13;;;;;;;5.53;100.00;103051.72;5010294;28;20110;-77
2021/12/16 02:03:38;;;;;;;28.40;9.38;;;;;;;5.80;100.00;103114.72;4992425;28;20034;-78
2021/12/16 02:06:21;;;;;;;25.27;8.50;;;;;;;5.59;100.00;103074.28;4988349;28;20077;-77
2021/12/16 02:08:48;;;;;;;20.90;8.27;;;;;;;6.00;100.00;103115.00;5002729;28;20025;-78
2021/12/16 02:27:52;;;;;;;30.23;8.80;;;;;;;4.63;100.00;102996.66;5026126;28;20045;-77
2021/12/16 02:33:18;;;;;;;26.77;8.80;;;;;;;5.37;100.00;103063.56;5022185;28;20026;-77
2021/12/16 02:35:47;;;;;;;22.83;8.50;;;;;;;6.11;100.00;103129.56;5004579;28;20138;-76
2021/12/16 02:38:18;;;;;;;29.10;8.52;;;;;;;5.91;100.00;103120.50;5025939;28;20042;-77
2021/12/16 02:40:47;;;;;;;23.15;8.13;;;;;;;5.80;100.00;103135.69;5025814;28;20049;-77
2021/12/16 02:48:35;;;;;;;21.15;8.55;;;;;;;6.00;100.00;103132.53;5050770;28;20028;-74
2021/12/16 02:51:11;;;;;;;22.23;7.95;;;;;;;6.02;100.00;103143.84;5067208;28;20033;-74
2021/12/16 02:53:44;;;;;;;22.13;7.88;;;;;;;6.02;100.00;103142.06;5050824;28;20206;-73
2021/12/16 02:56:13;;;;;;;22.38;8.48;;;;;;;5.98;100.00;103116.81;5081991;28;20021;-74
2021/12/16 02:58:41;;;;;;;23.33;7.80;;;;;;;6.10;100.00;103136.56;5076651;28;20112;-74
2021/12/16 03:01:28;;;;;;;22.42;7.28;;;;;;;5.84;100.00;103098.84;5077579;28;20020;-74
2021/12/16 03:03:57;;;;;;;20.00;7.70;;;;;;;6.15;100.00;103141.66;5059721;28;20413;-76
2021/12/16 03:06:23;;;;;;;21.38;7.65;;;;;;;5.79;100.00;103121.75;5077966;28;20052;-75
2021/12/16 03:08:49;;;;;;;24.08;8.43;;;;;;;5.56;100.00;103095.31;5058237;28;20110;-74
2021/12/16 03:11:22;;;;;;;20.42;8.57;;;;;;;5.27;100.00;103075.19;5041536;28;20082;-74
2021/12/16 03:14:18;;;;;;;23.85;8.45;;;;;;;5.68;100.00;103138.66;5058308;28;20063;-76
2021/12/16 03:22:03;;;;;;;19.58;8.35;;;;;;;5.61;100.00;103130.16;5051179;28;20029;-74
2021/12/16 03:25:12;;;;;;;25.13;9.05;;;;;;;5.59;100.00;103138.03;5037952;28;20155;-74
2021/12/16 03:27:41;;;;;;;24.77;8.77;;;;;;;5.81;100.00;103143.53;5054395;28;20053;-74
2021/12/16 03:33:15;;;;;;;17.67;8.38;;;;;;;5.82;100.00;103150.47;5055476;28;20036;-74
2021/12/16 03:35:52;;;;;;;24.02;9.63;;;;;;;5.42;100.00;103096.56;5055481;28;20025;-74
2021/12/16 03:38:19;;;;;;;22.17;9.25;;;;;;;5.43;100.00;103114.03;5055650;28;20045;-74
2021/12/16 03:40:44;;;;;;;25.55;10.00;;;;;;;5.55;100.00;103146.88;5021455;28;20021;-74
2021/12/16 03:43:14;;;;;;;21.35;9.80;;;;;;;5.71;100.00;103134.19;5037381;28;20068;-75
2021/12/16 03:48:39;;;;;;;22.65;9.65;;;;;;;5.52;100.00;103120.78;5030586;28;20048;-74
2021/12/16 03:51:10;;;;;;;21.02;9.63;;;;;;;5.37;100.00;103150.88;5049874;28;20021;-75
2021/12/16 03:53:36;;;;;;;27.90;10.50;;;;;;;5.37;100.00;103129.06;5045680;28;20391;-74
2021/12/16 03:56:04;;;;;;;21.35;9.80;;;;;;;5.50;100.00;103116.50;5054462;28;20379;-74
2021/12/16 03:58:29;;;;;;;22.25;9.65;;;;;;;5.43;100.00;103084.34;5053885;28;20031;-74
2021/12/16 04:01:00;;;;;;;22.80;9.23;;;;;;;5.62;100.00;103097.78;5020452;28;20025;-74
2021/12/16 04:03:26;;;;;;;26.10;9.90;;;;;;;5.68;100.00;103121.19;5055529;28;20384;-73
2021/12/16 04:05:52;;;;;;;27.50;10.75;;;;;;;5.48;100.00;103134.88;5056229;28;20033;-75
2021/12/16 04:08:18;;;;;;;24.35;10.70;;;;;;;5.29;100.00;103147.63;5054480;28;20021;-74
2021/12/16 04:11:00;;;;;;;26.10;10.75;;;;;;;5.51;100.00;103153.13;5020927;28;20040;-73
2021/12/16 04:13:25;;;;;;;27.63;11.18;;;;;;;5.66;100.00;103162.31;5055407;28;20025;-74
2021/12/16 04:15:51;;;;;;;30.70;12.23;;;;;;;5.60;100.00;103150.22;5054294;28;20036;-74
2021/12/16 04:18:17;;;;;;;25.40;11.27;;;;;;;5.49;100.00;103154.06;5055777;28;20029;-73
2021/12/16 04:20:43;;;;;;;28.20;12.95;;;;;;;5.43;100.00;103153.34;5055457;28;20494;-74
2021/12/16 04:23:14;;;;;;;29.08;13.32;;;;;;;5.48;100.00;103152.34;5021076;28;20053;-74
2021/12/16 04:25:43;;;;;;;27.00;12.98;;;;;;;5.15;100.00;103121.78;5037072;28;20020;-74
2021/12/16 04:28:15;;;;;;;30.48;12.93;;;;;;;5.54;100.00;103160.03;5036672;28;20076;-74
2021/12/16 04:30:42;;;;;;;29.00;12.30;;;;;;;5.40;100.00;103136.81;5036784;28;20033;-74
2021/12/16 04:33:08;;;;;;;32.90;12.60;;;;;;;5.45;100.00;103153.31;5036843;28;20025;-74
2021/12/16 04:35:35;;;;;;;32.25;12.73;;;;;;;5.44;100.00;103175.16;5038086;28;20025;-73
2021/12/16 04:38:01;;;;;;;29.98;12.52;;;;;;;5.20;100.00;103150.47;5042476;28;20028;-74
2021/12/16 04:40:29;;;;;;;30.98;13.52;;;;;;;5.62;100.00;103165.94;5056142;28;20025;-74
2021/12/16 04:43:01;;;;;;;30.25;13.50;;;;;;;5.34;100.00;103171.09;5036780;28;20107;-74
2021/12/16 04:45:26;;;;;;;33.70;14.50;;;;;;;4.90;100.00;103102.38;5053065;28;20335;-73
2021/12/16 04:47:52;;;;;;;32.33;14.73;;;;;;;5.16;100.00;103169.81;5054220;28;20025;-74
2021/12/16 04:50:18;;;;;;;36.38;15.45;;;;;;;5.19;100.00;103141.75;5036323;28;20025;-74
2021/12/16 04:52:44;;;;;;;33.95;14.85;;;;;;;5.38;100.00;103162.22;5036299;28;20120;-74
2021/12/16 04:55:13;;;;;;;35.83;15.48;;;;;;;5.40;100.00;103189.22;5036472;28;20033;-74
2021/12/16 04:57:43;;;;;;;31.70;14.48;;;;;;;5.23;100.00;103160.88;5037291;28;20071;-74
2021/12/16 05:00:14;;;;;;;44.55;15.13;;;;;;;5.13;100.00;103152.41;5036619;28;20428;-74
2021/12/16 05:02:44;;;;;;;32.88;16.38;;;;;;;5.27;100.00;103191.34;5036397;28;20091;-74
2021/12/16 05:05:11;;;;;;;37.28;15.52;;;;;;;5.01;100.00;103137.00;5054448;28;20429;-74
2021/12/16 05:07:37;;;;;;;34.63;15.27;;;;;;;5.10;100.00;103162.09;5054538;28;20029;-74
2021/12/16 05:10:05;;;;;;;35.20;14.85;;;;;;;5.10;100.00;103156.84;5036686;28;20497;-74
2021/12/16 05:12:38;;;;;;;39.53;15.82;;;;;;;5.18;100.00;103178.50;5035944;28;20025;-75
2021/12/16 05:15:07;;;;;;;40.13;15.52;;;;;;;5.31;100.00;103210.44;5053289;28;20071;-75
2021/12/16 05:17:43;;;;;;;35.03;15.38;;;;;;;5.29;100.00;103207.00;5036608;28;20021;-73
2021/12/16 05:20:13;;;;;;;39.35;16.15;;;;;;;4.90;100.00;103157.38;5053228;28;20027;-73
2021/12/16 05:28:10;;;;;;;41.37;16.70;;;;;;;5.02;100.00;103199.81;5036556;28;20040;-73
2021/12/16 05:30:37;;;;;;;40.60;16.13;;;;;;;5.19;100.00;103209.84;5053966;28;20419;-73
2021/12/16 05:33:04;;;;;;;44.38;15.90;;;;;;;5.19;100.00;103204.63;5054297;28;20033;-74
2021/12/16 05:35:32;;;;;;;35.42;17.15;;;;;;;5.02;100.00;103184.13;5053333;28;20048;-74
2021/12/16 05:38:01;;;;;;;41.85;16.60;;;;;;;4.80;100.00;103148.91;5035672;28;20025;-74
2021/12/16 05:40:29;;;;;;;38.63;16.38;;;;;;;4.97;100.00;103178.13;5053633;28;20045;-74
2021/12/16 05:42:57;;;;;;;40.35;15.93;;;;;;;5.29;100.00;103207.88;5052108;28;20044;-74
2021/12/16 05:45:24;;;;;;;38.22;15.02;;;;;;;5.46;100.00;103223.16;5019262;28;20029;-74
2021/12/16 05:47:52;;;;;;;42.95;16.05;;;;;;;5.30;100.00;103206.97;5036772;28;20522;-74
2021/12/16 05:50:18;;;;;;;35.33;14.93;;;;;;;5.33;100.00;103182.44;5020325;28;20136;-74
2021/12/16 05:52:44;;;;;;;31.33;14.68;;;;;;;5.26;100.00;103176.50;5021323;28;20109;-74
2021/12/16 05:55:12;;;;;;;32.65;14.52;;;;;;;5.56;100.00;103215.88;5037347;28;20467;-74
2021/12/16 05:57:41;;;;;;;31.38;14.10;;;;;;;5.68;100.00;103223.44;5037881;28;20025;-74
2021/12/16 06:00:21;;;;;;;31.27;13.80;;;;;;;5.52;100.00;103209.88;5054375;28;20418;-74
2021/12/16 06:02:46;;;;;;;30.20;13.50;;;;;;;5.34;100.00;103206.00;5057520;28;20025;-74
2021/12/16 06:05:13;;;;;;;28.80;13.20;;;;;;;5.15;100.00;103168.06;5058227;28;20504;-74
2021/12/16 06:07:38;;;;;;;32.42;15.25;;;;;;;5.36;100.00;103175.38;5023500;28;20017;-74
2021/12/16 06:10:08;;;;;;;34.90;14.48;;;;;;;5.16;100.00;103201.25;5038619;28;20032;-74
2021/12/16 06:12:34;;;;;;;32.50;13.70;;;;;;;5.35;100.00;103218.19;5025337;28;20035;-74
2021/12/16 06:28:11;;;;;;;31.70;13.35;;;;;;;5.31;100.00;103218.31;4980166;28;20058;-75
2021/12/16 06:30:40;;;;;;;36.95;14.38;;;;;;;5.42;100.00;103251.19;4980963;28;20070;-73
2021/12/16 06:33:16;;;;;;;36.83;14.02;;;;;;;5.42;100.00;103245.09;4979609;28;20058;-74
2021/12/16 06:35:45;;;;;;;31.60;13.43;;;;;;;5.19;100.00;103188.06;4992286;28;20039;-74
2021/12/16 06:38:11;;;;;;;33.00;13.77;;;;;;;5.32;100.00;103231.38;4995204;28;20094;-78
2021/12/16 06:40:38;;;;;;;32.95;14.45;;;;;;;5.56;100.00;103237.72;4979381;28;20037;-75
2021/12/16 06:43:05;;;;;;;32.97;13.50;;;;;;;5.68;100.00;103262.75;4976163;28;20050;-74
2021/12/16 06:45:35;;;;;;;29.10;12.35;;;;;;;5.47;100.00;103239.72;4992413;28;20054;-74
2021/12/16 06:48:06;;;;;;;29.70;12.77;;;;;;;5.45;100.00;103226.69;4973810;28;20027;-75
2021/12/16 06:53:10;;;;;;;27.17;12.35;;;;;;;5.63;100.00;103256.75;4994665;28;20449;-75
2021/12/16 06:56:09;;;;;;;26.95;12.70;;;;;;;5.58;100.00;103241.16;4993434;28;20412;-78
2021/12/16 06:58:47;;;;;;;28.88;13.25;;;;;;;5.63;100.00;103243.66;5033145;28;20016;-77
2021/12/16 07:01:31;;;;;;;30.75;13.45;;;;;;;5.76;100.00;103283.50;5041901;28;20021;-77
2021/12/16 07:03:58;;;;;;;27.65;12.57;;;;;;;5.74;100.00;103287.94;5055046;28;20017;-77
2021/12/16 07:06:30;;;;;;;30.17;12.43;;;;;;;5.56;100.00;103297.13;5024467;28;20021;-76
2021/12/16 07:09:01;;;;;;;27.90;12.18;;;;;;;5.61;100.00;103301.38;5053335;28;20060;-74
2021/12/16 07:11:28;;;;;;;26.38;12.48;;;;;;;5.71;100.00;103309.00;5035149;28;20021;-75
2021/12/16 07:13:59;;;;;;;29.50;14.50;;;;;;;5.37;100.00;103242.59;5037593;28;20025;-77
2021/12/16 07:16:28;;;;;;;32.97;12.68;;;;;;;5.66;100.00;103311.75;5021683;28;20505;-76
2021/12/16 07:18:56;;;;;;;27.55;12.85;;;;;;;5.46;100.00;103293.91;5014601;28;20052;-77
2021/12/16 07:21:23;;;;;;;32.33;14.00;;;;;;;5.55;100.00;103319.88;5021548;28;20356;-75
2021/12/16 07:23:50;;;;;;;29.95;12.93;;;;;;;5.26;100.00;103262.97;5050202;28;20040;-77
2021/12/16 07:26:15;;;;;;;27.33;11.80;;;;;;;5.68;100.00;103337.91;5054339;28;20025;-75
2021/12/16 07:28:41;;;;;;;26.58;12.35;;;;;;;5.61;100.00;103288.28;5021445;28;20429;-79
2021/12/16 07:31:07;;;;;;;28.67;12.68;;;;;;;5.64;100.00;103331.91;5055673;28;20423;-78
2021/12/16 07:33:33;;;;;;;29.67;12.82;;;;;;;5.65;100.00;103310.88;5038022;28;20029;-72
2021/12/16 07:36:02;;;;;;;28.92;12.48;;;;;;;5.37;100.00;103270.56;5037777;28;20026;-76
2021/12/16 07:41:17;;;;;;;29.42;12.35;;;;;;;5.60;100.00;103319.75;5052514;23;20500;-77
2021/12/16 07:46:51;;;;;;;28.77;12.27;;;;;;;5.75;100.00;103337.72;4956858;28;20033;-76
2021/12/16 07:49:21;;;;;;;27.50;11.82;;;;;;;5.47;100.00;103303.47;4959139;28;20039;-79
2021/12/16 07:51:47;;;;;;;30.75;11.85;;;;;;;5.60;100.00;103311.91;4958917;28;20150;-76
2021/12/16 07:54:26;;;;;;;31.55;12.52;;;;;;;5.78;100.00;103366.47;4973785;28;20042;-76
2021/12/16 07:56:58;;;;;;;27.17;12.70;;;;;;;5.88;100.00;103358.38;4959131;28;20034;-77
2021/12/16 07:59:25;;;;;;;30.30;11.57;;;;;;;5.82;100.00;103356.78;4974805;28;20387;-76
2021/12/16 08:01:51;;;;;;;27.98;12.68;;;;;;;6.07;100.00;103372.75;4975680;28;20043;-76
2021/12/16 08:04:20;;;;;;;26.42;11.82;;;;;;;5.81;100.00;103340.19;4960150;28;20031;-76
2021/12/16 08:06:52;;;;;;;31.80;11.30;;;;;;;5.71;100.00;103354.44;4959230;28;20023;-77
2021/12/16 08:09:19;;;;;;;27.98;11.68;;;;;;;5.97;100.00;103369.53;4953316;28;20038;-77
2021/12/16 08:11:50;;;;;;;30.20;11.68;;;;;;;5.74;100.00;103354.34;4964838;28;20466;-74
2021/12/16 08:14:16;;;;;;;24.27;10.82;;;;;;;5.82;100.00;103359.41;4936701;28;20529;-78
2021/12/16 08:16:45;;;;;;;25.13;10.82;;;;;;;5.90;100.00;103381.03;4964252;28;20090;-84
2021/12/16 08:19:11;;;;;;;25.38;11.10;;;;;;;5.74;100.00;103372.69;4964189;28;20033;-76
2021/12/16 08:21:38;;;;;;;25.73;11.23;;;;;;;5.70;100.00;103347.47;5036991;28;20356;-85
2021/12/16 08:24:07;;;;;;;26.65;10.68;;;;;;;5.98;100.00;103368.63;5036821;28;20029;-81
2021/12/16 08:26:37;;;;;;;27.58;11.05;;;;;;;5.63;100.00;103335.41;5047874;28;20079;-80
2021/12/16 08:29:04;;;;;;;33.22;11.27;;;;;;;5.83;100.00;103380.31;5028843;28;20034;-79
2021/12/16 08:31:30;;;;;;;31.08;11.45;;;;;;;5.77;100.00;103341.16;5013973;28;20064;-79
2021/12/16 08:33:57;;;;;;;27.10;11.40;;;;;;;5.84;100.00;103389.94;5036418;28;20025;-74
2021/12/16 08:36:23;;;;;;;27.30;11.68;;;;;;;6.12;100.00;103415.47;5035639;28;20033;-75
2021/12/16 08:38:49;;;;;;;25.52;11.00;;;;;;;6.13;100.00;103387.47;5019995;28;20025;-75
2021/12/16 08:41:25;;;;;;;30.17;11.18;;;;;;;6.32;100.00;103421.97;5004787;28;20084;-76
2021/12/16 08:43:51;;;;;;;25.90;11.75;;;;;;;6.00;100.00;103345.81;5006399;28;20053;-75
2021/12/16 08:46:21;;;;;;;23.40;10.50;;;;;;;5.78;100.00;103363.00;5034621;28;20028;-80
2021/12/16 08:48:47;;;;;;;31.52;11.27;;;;;;;6.22;100.00;103388.09;5031374;28;20044;-75
2021/12/16 08:51:16;;;;;;;24.10;11.90;;;;;;;6.35;100.00;103393.84;5014665;28;20040;-73
2021/12/16 08:53:44;;;;;;;29.38;12.27;;;;;;;6.28;100.00;103422.03;5013774;28;20061;-79
2021/12/16 08:56:13;;;;;;;28.00;11.35;;;;;;;6.48;100.00;103436.38;5022708;28;20057;-79
2021/12/16 08:58:40;;;;;;;27.90;12.13;;;;;;;6.13;100.00;103359.50;5016765;28;20041;-76
2021/12/16 09:01:12;;;;;;;29.83;11.73;;;;;;;6.32;100.00;103420.19;5000988;28;20498;-75
2021/12/16 09:03:38;;;;;;;26.45;11.95;;;;;;;6.34;100.00;103413.13;5016411;28;20463;-74
2021/12/16 09:06:04;;;;;;;24.00;11.68;;;;;;;6.55;100.00;103440.56;5016589;28;20022;-74
2021/12/16 09:08:30;;;;;;;27.95;11.60;;;;;;;6.68;100.00;103430.56;5015160;28;20036;-75
2021/12/16 09:11:03;;;;;;;30.08;12.38;;;;;;;6.33;100.00;103381.69;5015966;28;20083;-74
2021/12/16 09:13:29;;;;;;;24.00;12.35;;;;;;;6.54;100.00;103388.06;5015745;28;20501;-74
2021/12/16 09:16:01;;;;;;;34.30;13.15;;;;;;;6.78;100.00;103444.28;5000171;28;20030;-74
2021/12/16 09:18:33;;;;;;;35.40;12.60;;;;;;;6.59;100.00;103428.22;5016499;28;20049;-73
2021/12/16 09:21:02;;;;;;;27.38;12.50;;;;;;;6.33;100.00;103406.16;4999936;28;20379;-73
2021/12/16 09:23:28;;;;;;;25.85;11.98;;;;;;;6.54;100.00;103448.47;5019225;28;20391;-74
2021/12/16 09:25:54;;;;;;;28.85;13.07;;;;;;;6.78;100.00;103445.16;5004490;28;20545;-74
2021/12/16 09:28:22;;;;;;;32.63;12.23;;;;;;;6.67;100.00;103413.09;5030592;28;20025;-77
2021/12/16 09:30:49;;;;;;;50.40;20.50;;;;;;;6.60;100.00;103464.91;5036533;28;20490;-74
2021/12/16 09:33:18;;;;;;;57.30;24.45;;;;;;;6.26;100.00;103409.84;5031059;28;20368;-74
2021/12/16 09:35:50;;;;;;;36.35;14.20;;;;;;;6.74;100.00;103456.63;5014360;28;20353;-74
2021/12/16 09:38:20;;;;;;;33.42;13.18;;;;;;;6.74;100.00;103440.03;4987162;28;20133;-72
2021/12/16 09:40:52;;;;;;;30.80;14.00;;;;;;;6.71;100.00;103438.34;5017998;28;20041;-71
2021/12/16 09:43:22;;;;;;;33.72;13.70;;;;;;;6.63;100.00;103432.44;5017010;28;20038;-73
2021/12/16 09:45:48;;;;;;;38.95;14.35;;;;;;;6.64;100.00;103407.94;5015730;28;20021;-72
2021/12/16 09:48:14;;;;;;;34.55;15.25;;;;;;;6.69;100.00;103422.63;5021294;28;20085;-78
2021/12/16 09:50:40;;;;;;;33.15;14.20;;;;;;;6.96;100.00;103459.53;5019378;28;20025;-72
2021/12/16 09:53:06;;;;;;;33.88;14.65;;;;;;;6.69;100.00;103413.91;5035645;28;20165;-73
2021/12/16 09:55:34;;;;;;;27.83;13.40;;;;;;;7.05;100.00;103437.38;5002188;28;20408;-72
2021/12/16 09:58:01;;;;;;;30.90;13.50;;;;;;;7.19;100.00;103443.06;5033672;28;20026;-75
2021/12/16 10:00:32;;;;;;;31.92;13.25;;;;;;;7.05;100.00;103451.38;5017186;28;20028;-74
2021/12/16 10:03:01;;;;;;;27.35;12.70;;;;;;;7.29;100.00;103459.44;5000953;28;20057;-76
2021/12/16 10:05:28;;;;;;;34.42;15.15;;;;;;;7.32;100.00;103447.03;5034822;28;20025;-74
2021/12/16 10:07:57;;;;;;;45.40;14.98;;;;;;;7.19;100.00;103435.19;5035619;28;20071;-75
2021/12/16 10:10:38;;;;;;;30.67;14.45;;;;;;;7.46;100.00;103458.91;5154625;27;20439;-73
2021/12/16 10:13:06;;;;;;;31.58;12.68;;;;;;;7.26;100.00;103446.38;5152449;27;20045;-73
2021/12/16 10:18:06;;;;;;;28.23;13.02;;;;;;;7.27;100.00;103456.00;5154080;27;20026;-77
2021/12/16 10:20:37;;;;;;;35.50;14.13;;;;;;;6.99;100.00;103413.91;5134562;27;20023;-74
2021/12/16 10:23:09;;;;;;;31.40;12.95;;;;;;;7.17;100.00;103452.75;5153970;27;20452;-73
2021/12/16 10:25:41;;;;;;;29.15;12.25;;;;;;;7.23;100.00;103433.34;5113453;27;20050;-72
2021/12/16 10:28:23;;;;;;;32.47;12.70;;;;;;;7.49;100.00;103471.94;5133674;27;20051;-73
2021/12/16 10:31:21;;;;;;;33.40;12.82;;;;;;;7.38;100.00;103451.28;5132914;27;20035;-74
2021/12/16 10:33:59;;;;;;;30.83;13.07;;;;;;;7.39;100.00;103452.97;5145609;27;20023;-76
2021/12/16 10:36:34;;;;;;;30.35;12.93;;;;;;;7.45;100.00;103470.34;5115126;27;20019;-72
2021/12/16 10:39:06;;;;;;;34.58;13.00;;;;;;;7.41;100.00;103460.84;5129926;27;20019;-76
2021/12/16 10:41:55;;;;;;;31.67;13.48;;;;;;;7.36;100.00;103460.09;5114286;27;20569;-75
2021/12/16 10:44:27;;;;;;;25.98;12.45;;;;;;;7.09;100.00;103445.13;5132429;27;20029;-73
2021/12/16 10:47:10;;;;;;;42.22;14.23;;;;;;;7.35;100.00;103461.00;5147884;27;20029;-76
2021/12/16 10:49:45;;;;;;;34.90;13.02;;;;;;;7.47;100.00;103465.88;5115175;27;20129;-75
2021/12/16 10:52:12;;;;;;;;;;;;;;;7.74;100.00;103470.28;5130265;27;20405;-75
2021/12/16 10:54:41;;;;;;;32.90;13.40;;;;;;;7.69;100.00;103466.06;5133437;27;19963;-73
2021/12/16 10:57:16;;;;;;;32.53;13.20;;;;;;;7.70;100.00;103465.16;5114615;27;20019;-72
2021/12/16 10:59:45;;;;;;;36.05;13.65;;;;;;;7.93;100.00;103461.78;5132303;27;20124;-72
2021/12/16 11:02:24;;;;;;;32.72;13.80;;;;;;;8.01;100.00;103457.09;5153854;27;20026;-80
2021/12/16 11:05:02;;;;;;;34.83;16.40;;;;;;;8.30;100.00;103450.84;5133911;27;20029;-75
2021/12/16 11:07:34;;;;;;;31.75;13.52;;;;;;;8.19;100.00;103446.88;5131567;27;20096;-73
2021/12/16 11:10:12;;;;;;;32.90;13.27;;;;;;;8.95;100.00;103478.41;5129277;27;20039;-73
2021/12/16 11:12:47;;;;;;;30.70;12.80;;;;;;;9.06;100.00;103474.50;5145017;27;20027;-74
2021/12/16 11:15:21;;;;;;;29.73;12.75;;;;;;;9.00;100.00;103462.41;5117276;27;20037;-73
2021/12/16 11:17:49;;;;;;;28.95;12.77;;;;;;;9.37;100.00;103461.84;5132810;27;20019;-73
2021/12/16 11:20:25;;;;;;;31.55;12.35;;;;;;;9.41;100.00;103462.59;5127809;27;20027;-73
2021/12/16 11:23:14;;;;;;;31.00;13.10;;;;;;;10.55;100.00;103415.59;5117571;27;20019;-75
2021/12/16 11:25:44;;;;;;;26.77;10.73;;;;;;;13.29;100.00;103445.06;5095471;27;20111;-73
2021/12/16 11:28:33;;;;;;;22.42;9.70;;;;;;;12.02;100.00;103453.53;5100758;27;20024;-73
2021/12/16 11:31:07;;;;;;;30.45;10.48;;;;;;;11.20;100.00;103447.84;5032965;28;20116;-77
2021/12/16 11:33:33;;;;;;;;;;;;;;;12.07;100.00;103454.16;5020557;28;20029;-74
2021/12/16 11:36:09;;;;;;;24.95;10.27;;;;;;;12.30;100.00;103455.63;5005393;28;19923;-78
2021/12/16 11:38:44;;;;;;;20.23;9.35;;;;;;;11.75;100.00;103450.47;5039478;28;20025;-73
2021/12/16 11:41:12;;;;;;;;;;;;;;;11.42;100.00;103453.84;5019290;28;20033;-75
2021/12/16 11:43:40;;;;;;;23.88;9.98;;;;;;;10.68;100.00;103455.56;5033191;28;19913;-74
2021/12/16 11:46:16;;;;;;;24.40;10.98;;;;;;;9.67;100.00;103456.25;5016353;28;20022;-75
2021/12/16 11:48:42;;;;;;;27.65;11.02;;;;;;;9.22;100.00;103422.91;5008260;28;20052;-74
2021/12/16 11:51:13;;;;;;;24.13;12.38;;;;;;;9.37;100.00;103448.66;5036570;28;20029;-74
2021/12/16 11:53:46;;;;;;;28.50;11.43;;;;;;;9.82;100.00;103444.22;5001564;28;20040;-73
2021/12/16 11:56:12;;;;;;;28.10;12.00;;;;;;;9.55;100.00;103428.59;5001493;28;20133;-73
2021/12/16 11:58:45;;;;;;;28.92;11.68;;;;;;;9.68;100.00;103457.13;5016554;28;20033;-74
2021/12/16 12:01:14;;;;;;;44.95;17.90;;;;;;;9.43;100.00;103397.47;4997433;28;20447;-74
2021/12/16 12:03:40;;;;;;;40.22;16.15;;;;;;;10.10;100.00;103429.84;4996938;28;20151;-74
2021/12/16 12:06:18;;;;;;;34.63;13.27;;;;;;;10.49;100.00;103463.41;5004568;28;20512;-74
2021/12/16 12:08:47;;;;;;;29.35;12.50;;;;;;;10.36;100.00;103445.47;5101637;28;20039;-74
2021/12/16 12:11:17;;;;;;;26.20;12.80;;;;;;;10.16;100.00;103440.16;5081202;28;20032;-75
2021/12/16 12:13:51;;;;;;;33.03;13.00;;;;;;;10.33;100.00;103431.53;5117317;28;20061;-85
2021/12/16 12:16:35;;;;;;;35.00;16.85;;;;;;;10.50;100.00;103373.53;5110411;27;20038;-76
2021/12/16 12:19:14;;;;;;;29.08;12.23;;;;;;;10.49;100.00;103448.44;5114248;27;20031;-75
2021/12/16 12:22:00;;;;;;;27.77;11.05;;;;;;;11.14;100.00;103417.25;5117104;27;20376;-74
2021/12/16 12:24:32;;;;;;;27.85;11.15;;;;;;;11.42;100.00;103398.28;5115530;27;20041;-74
2021/12/16 12:27:11;;;;;;;28.02;10.70;;;;;;;10.97;100.00;103381.03;5117545;27;20027;-74
2021/12/16 12:29:50;;;;;;;22.88;9.65;;;;;;;11.35;100.00;103436.50;5136609;27;20027;-75
2021/12/16 12:32:25;;;;;;;24.70;10.15;;;;;;;12.31;100.00;103416.75;5117090;27;20019;-74
2021/12/16 12:35:14;;;;;;;20.83;9.38;;;;;;;13.48;100.00;103435.09;5102080;27;20110;-73
2021/12/16 12:37:51;;;;;;;22.52;8.50;;;;;;;14.40;100.00;103397.72;5100855;27;20027;-74
2021/12/16 12:40:19;;;;;;;18.77;8.05;;;;;;;15.34;100.00;103433.53;5107356;27;20065;-75
2021/12/16 12:42:46;;;;;;;19.55;8.30;;;;;;;16.54;100.00;103428.06;5113254;27;20073;-75
2021/12/16 12:45:15;;;;;;;22.88;9.05;;;;;;;15.68;100.00;103391.34;5143112;27;20106;-77
2021/12/16 12:47:49;;;;;;;21.92;8.77;;;;;;;16.99;100.00;103377.72;5122754;27;20022;-78
2021/12/16 12:50:27;;;;;;;19.38;8.57;;;;;;;17.48;100.00;103422.97;5116263;27;20030;-76
2021/12/16 12:52:59;;;;;;;22.15;8.57;;;;;;;17.65;100.00;103383.47;5079459;28;20114;-74
2021/12/16 12:55:33;;;;;;;20.60;8.93;;;;;;;17.29;100.00;103418.16;5096058;28;20029;-76
2021/12/16 12:58:12;;;;;;;20.88;9.05;;;;;;;17.21;100.00;103412.53;5095877;28;20039;-75
2021/12/16 13:00:44;;;;;;;25.38;9.50;;;;;;;17.91;100.00;103417.09;5085798;27;20080;-74
2021/12/16 13:03:17;;;;;;;21.88;8.98;;;;;;;18.63;100.00;103423.97;5115973;27;20061;-75
2021/12/16 13:06:13;;;;;;;17.55;8.18;;;;;;;18.57;100.00;103411.91;5099886;27;20123;-78
2021/12/16 13:08:53;;;;;;;19.63;8.70;;;;;;;18.67;100.00;103422.75;5134693;27;20047;-76
2021/12/16 13:11:26;;;;;;;22.52;8.63;;;;;;;15.77;100.00;103377.41;5117078;27;20035;-74
2021/12/16 13:17:32;;;;;;;25.73;9.65;;;;;;;14.19;100.00;103437.13;5132822;27;20042;-74
2021/12/16 13:28:38;;;;;;;21.33;9.57;;;;;;;11.96;100.00;103392.94;5132811;27;20019;-76
2021/12/16 13:31:39;;;;;;;20.10;9.95;;;;;;;11.63;100.00;103425.47;5115880;27;20020;-77
2021/12/16 13:34:49;;;;;;;25.08;10.30;;;;;;;11.45;100.00;103413.13;5137359;27;20030;-76
2021/12/16 13:37:22;;;;;;;28.10;11.15;;;;;;;11.55;100.00;103451.44;5142439;27;20099;-79
2021/12/16 13:39:52;;;;;;;23.80;9.70;;;;;;;11.08;100.00;103396.38;5125083;27;20015;-79
2021/12/16 13:42:20;;;;;;;20.33;9.30;;;;;;;11.31;100.00;103448.19;5121067;27;20023;-78
2021/12/16 13:45:24;;;;;;;24.55;10.35;;;;;;;11.07;100.00;103424.63;5108607;27;20023;-78
2021/12/16 14:05:17;;;;;;;35.00;13.38;;;;;;;10.61;100.00;103433.81;5123171;27;20462;-79
2021/12/16 14:08:00;;;;;;;26.85;11.52;;;;;;;10.57;100.00;103443.66;5139251;22;20188;-78
2021/12/16 14:10:58;;;;;;;27.15;11.10;;;;;;;10.31;100.00;103438.66;5051001;28;20525;-78
2021/12/16 14:23:20;;;;;;;29.67;11.40;;;;;;;10.28;100.00;103475.75;4990279;28;20069;-78
2021/12/16 14:25:38;;;;;;;29.75;11.55;;;;;;;9.63;100.00;103446.78;4996528;28;20157;-78
2021/12/16 14:31:10;;;;;;;25.33;11.98;;;;;;;10.01;100.00;103484.78;4984142;28;20037;-78
2021/12/16 14:45:34;;;;;;;28.05;11.85;;;;;;;9.98;100.00;103491.97;4993738;28;20248;-75
2021/12/16 14:50:48;;;;;;;24.70;11.13;;;;;;;9.37;100.00;103453.94;4992559;28;20073;-75
2021/12/16 14:53:28;;;;;;;24.23;11.30;;;;;;;9.57;100.00;103466.34;4975085;28;20388;-75
2021/12/16 14:56:03;;;;;;;31.92;11.57;;;;;;;9.36;100.00;103435.56;4993753;28;20031;-75